createdAt,value
2022-12-27T00:01:30.539Z,2.93
2022-12-27T00:03:57.419Z,3.04
2022-12-27T00:06:25.853Z,3.00
2022-12-27T00:08:55.331Z,2.93
2022-12-27T00:11:25.762Z,2.99
2022-12-27T00:13:52.910Z,3.02
2022-12-27T00:16:21.329Z,3.03
2022-12-27T00:18:49.537Z,3.01
2022-12-27T00:21:18.158Z,3.03
2022-12-27T00:23:47.456Z,3.04
2022-12-27T00:26:18.177Z,3.02
2022-12-27T00:28:45.606Z,3.06
2022-12-27T00:31:13.486Z,3.11
2022-12-27T00:33:42.795Z,3.22
2022-12-27T00:36:13.930Z,3.24
2022-12-27T00:38:41.080Z,3.24
2022-12-27T00:41:08.142Z,3.25
2022-12-27T00:43:36.395Z,3.26
2022-12-27T00:46:03.675Z,3.25
2022-12-27T00:48:30.998Z,3.15
2022-12-27T00:50:59.592Z,3.12
2022-12-27T00:53:27.103Z,3.20
2022-12-27T00:55:54.408Z,3.11
2022-12-27T00:58:21.284Z,3.19
2022-12-27T01:00:50.107Z,3.20
2022-12-27T01:03:18.580Z,3.16
2022-12-27T01:05:45.545Z,3.16
2022-12-27T01:08:12.357Z,3.19
2022-12-27T01:10:40.298Z,3.19
2022-12-27T01:13:07.930Z,3.19
2022-12-27T01:15:34.984Z,3.25
2022-12-27T01:18:03.236Z,3.37
2022-12-27T01:20:30.090Z,3.45
2022-12-27T01:22:57.009Z,3.52
2022-12-27T01:25:23.836Z,3.52
2022-12-27T01:27:50.746Z,3.57
2022-12-27T01:30:17.765Z,3.61
2022-12-27T01:32:44.771Z,3.66
2022-12-27T01:35:12.970Z,3.72
2022-12-27T01:37:39.810Z,3.72
2022-12-27T01:40:08.154Z,3.72
2022-12-27T01:42:52.962Z,3.72
2022-12-27T01:45:21.150Z,3.72
2022-12-27T01:47:53.373Z,3.67
2022-12-27T01:50:30.992Z,3.73
2022-12-27T01:53:08.789Z,3.64
2022-12-27T01:55:42.058Z,3.60
2022-12-27T01:58:13.673Z,3.62
2022-12-27T02:00:44.035Z,3.63
2022-12-27T02:03:14.848Z,3.68
2022-12-27T02:05:43.224Z,3.67
2022-12-27T02:08:20.339Z,3.62
2022-12-27T02:10:48.328Z,3.64
2022-12-27T02:13:16.508Z,3.62
2022-12-27T02:15:43.407Z,3.60
2022-12-27T02:18:10.684Z,3.55
2022-12-27T02:20:55.355Z,3.51
2022-12-27T02:24:03.084Z,3.47
2022-12-27T02:26:44.909Z,3.40
2022-12-27T02:29:24.378Z,3.37
2022-12-27T02:31:59.152Z,3.34
2022-12-27T02:34:30.587Z,3.27
2022-12-27T02:37:04.971Z,3.28
2022-12-27T02:39:36.158Z,3.28
2022-12-27T02:42:22.724Z,3.23
2022-12-27T02:45:09.855Z,3.33
2022-12-27T02:47:55.431Z,3.27
2022-12-27T02:50:41.066Z,3.18
2022-12-27T02:53:18.460Z,3.23
2022-12-27T02:56:13.493Z,3.23
2022-12-27T02:58:52.584Z,3.26
2022-12-27T03:01:54.893Z,3.19
2022-12-27T03:04:34.250Z,3.21
2022-12-27T03:07:13.696Z,3.18
2022-12-27T03:10:07.868Z,3.09
2022-12-27T03:13:20.055Z,3.01
2022-12-27T03:16:12.606Z,3.04
2022-12-27T03:19:05.282Z,3.10
2022-12-27T03:21:54.103Z,3.08
2022-12-27T03:24:42.248Z,3.12
2022-12-27T03:27:18.421Z,3.13
2022-12-27T03:30:10.639Z,3.07
2022-12-27T03:33:03.464Z,3.09
2022-12-27T03:35:36.585Z,3.01
2022-12-27T03:38:05.840Z,2.92
2022-12-27T03:41:07.281Z,2.86
2022-12-27T03:43:35.662Z,2.75
2022-12-27T03:46:35.807Z,2.70
2022-12-27T03:49:21.150Z,2.73
2022-12-27T03:51:55.538Z,2.63
2022-12-27T03:54:29.215Z,2.56
2022-12-27T03:56:58.510Z,2.59
2022-12-27T03:59:25.885Z,2.61
2022-12-27T04:01:52.987Z,2.65
2022-12-27T04:04:19.952Z,2.71
2022-12-27T04:06:46.917Z,2.67
2022-12-27T04:09:33.722Z,2.69
2022-12-27T04:12:19.084Z,2.69
2022-12-27T04:15:04.369Z,2.65
2022-12-27T04:17:49.897Z,2.55
2022-12-27T04:20:35.581Z,2.47
2022-12-27T04:23:20.654Z,2.40
2022-12-27T04:26:07.289Z,2.43
2022-12-27T04:28:53.227Z,2.32
2022-12-27T04:31:39.024Z,2.26
2022-12-27T04:34:24.836Z,2.27
2022-12-27T04:36:51.777Z,2.18
2022-12-27T04:39:18.688Z,2.18
2022-12-27T04:42:05.519Z,2.15
2022-12-27T04:44:50.774Z,2.28
2022-12-27T04:47:38.896Z,2.43
2022-12-27T04:50:32.442Z,2.46
2022-12-27T04:53:18.061Z,2.40
2022-12-27T04:55:44.905Z,2.45
2022-12-27T04:58:13.175Z,2.46
2022-12-27T05:00:58.659Z,2.46
2022-12-27T05:03:25.937Z,2.56
2022-12-27T05:05:53.500Z,2.50
2022-12-27T05:08:39.772Z,2.55
2022-12-27T05:11:25.669Z,2.60
2022-12-27T05:13:59.707Z,2.61
2022-12-27T05:16:27.412Z,2.67
2022-12-27T05:18:54.430Z,2.68
2022-12-27T05:21:21.651Z,2.76
2022-12-27T05:24:06.984Z,2.78
2022-12-27T05:26:35.063Z,2.77
2022-12-27T05:29:03.436Z,2.83
2022-12-27T05:31:30.593Z,2.82
2022-12-27T05:33:58.207Z,2.79
2022-12-27T05:36:25.688Z,2.79
2022-12-27T05:38:52.590Z,2.83
2022-12-27T05:41:19.468Z,2.88
2022-12-27T05:43:46.721Z,2.81
2022-12-27T05:46:16.550Z,2.81
2022-12-27T05:48:43.459Z,2.77
2022-12-27T05:51:13.694Z,2.73
2022-12-27T05:53:40.908Z,2.79
2022-12-27T05:56:08.615Z,2.82
2022-12-27T05:58:35.601Z,2.94
2022-12-27T06:01:07.541Z,2.92
2022-12-27T06:03:35.937Z,2.86
2022-12-27T06:06:04.130Z,2.83
2022-12-27T06:08:31.381Z,2.85
2022-12-27T06:11:02.888Z,2.86
2022-12-27T06:13:30.006Z,2.87
2022-12-27T06:15:59.926Z,2.86
2022-12-27T06:18:28.070Z,2.86
2022-12-27T06:21:01.446Z,2.91
2022-12-27T06:23:28.478Z,2.92
2022-12-27T06:25:55.472Z,2.93
2022-12-27T06:28:22.346Z,2.94
2022-12-27T06:30:50.713Z,2.97
2022-12-27T06:33:17.621Z,2.94
2022-12-27T06:35:44.529Z,2.93
2022-12-27T06:38:12.776Z,2.95
2022-12-27T06:40:39.633Z,2.92
2022-12-27T06:43:06.488Z,2.92
2022-12-27T06:45:33.399Z,2.89
2022-12-27T06:48:00.406Z,2.85
2022-12-27T06:50:27.318Z,2.85
2022-12-27T06:52:54.212Z,2.84
2022-12-27T06:55:22.752Z,2.85
2022-12-27T06:57:50.067Z,2.88
2022-12-27T07:00:18.009Z,2.94
2022-12-27T07:02:44.962Z,2.90
2022-12-27T07:05:11.827Z,2.87
2022-12-27T07:07:38.714Z,2.88
2022-12-27T07:10:06.757Z,2.85
2022-12-27T07:12:37.004Z,2.83
2022-12-27T07:15:05.286Z,2.90
2022-12-27T07:17:32.354Z,2.86
2022-12-27T07:19:59.201Z,2.90
2022-12-27T07:22:26.931Z,2.88
2022-12-27T07:24:53.815Z,2.94
2022-12-27T07:27:20.668Z,3.00
2022-12-27T07:29:48.874Z,2.96
2022-12-27T07:32:15.735Z,2.95
2022-12-27T07:34:42.677Z,2.92
2022-12-27T07:37:09.782Z,2.87
2022-12-27T07:39:36.613Z,2.83
2022-12-27T07:42:08.164Z,2.88
2022-12-27T07:44:35.860Z,3.01
2022-12-27T07:47:04.291Z,3.01
2022-12-27T07:49:31.227Z,2.96
2022-12-27T07:51:58.078Z,2.96
2022-12-27T07:54:24.967Z,2.93
2022-12-27T07:56:51.792Z,2.96
2022-12-27T07:59:18.681Z,3.06
2022-12-27T08:02:03.992Z,3.10
2022-12-27T08:04:33.261Z,3.03
2022-12-27T08:07:04.535Z,3.02
2022-12-27T08:09:33.964Z,3.01
2022-12-27T08:12:00.943Z,3.04
2022-12-27T08:14:27.826Z,3.04
2022-12-27T08:17:05.915Z,3.00
2022-12-27T08:19:34.350Z,3.02
2022-12-27T08:22:01.168Z,3.06
2022-12-27T08:24:28.084Z,3.21
2022-12-27T08:26:54.907Z,3.21
2022-12-27T08:29:21.769Z,3.21
2022-12-27T08:31:49.005Z,3.31
2022-12-27T08:34:15.861Z,3.27
2022-12-27T08:36:54.848Z,3.33
2022-12-27T08:39:22.708Z,3.28
2022-12-27T08:41:49.541Z,3.29
2022-12-27T08:44:16.410Z,3.30
2022-12-27T08:46:43.311Z,3.33
2022-12-27T08:49:10.188Z,3.29
2022-12-27T08:51:41.284Z,3.25
2022-12-27T08:54:10.070Z,3.29
2022-12-27T08:56:36.959Z,3.37
2022-12-27T08:59:04.049Z,3.47
2022-12-27T09:01:31.011Z,3.50
2022-12-27T09:03:58.019Z,3.61
2022-12-27T09:06:25.831Z,3.71
2022-12-27T09:08:54.811Z,3.82
2022-12-27T09:11:25.639Z,3.86
2022-12-27T09:13:53.303Z,3.90
2022-12-27T09:16:24.156Z,3.96
2022-12-27T09:18:53.015Z,4.05
2022-12-27T09:21:21.317Z,4.20
2022-12-27T09:23:49.171Z,4.35
2022-12-27T09:26:17.885Z,4.49
2022-12-27T09:28:47.080Z,4.58
2022-12-27T09:31:15.161Z,4.69
2022-12-27T09:33:42.235Z,4.80
2022-12-27T09:36:11.615Z,4.86
2022-12-27T09:38:39.022Z,4.98
2022-12-27T09:41:16.541Z,5.22
2022-12-27T09:43:58.505Z,5.42
2022-12-27T09:46:31.605Z,5.57
2022-12-27T09:48:58.624Z,5.68
2022-12-27T09:51:30.904Z,5.72
2022-12-27T09:54:02.201Z,5.87
2022-12-27T09:56:47.415Z,5.84
2022-12-27T09:59:25.695Z,5.85
2022-12-27T10:01:52.782Z,5.90
2022-12-27T10:04:20.364Z,5.84
2022-12-27T10:07:09.775Z,5.96
2022-12-27T10:09:57.116Z,6.07
2022-12-27T10:12:46.095Z,6.00
2022-12-27T10:15:26.096Z,5.82
2022-12-27T10:18:03.532Z,5.64
2022-12-27T10:20:41.649Z,5.58
2022-12-27T10:23:14.467Z,5.47
2022-12-27T10:25:41.585Z,5.40
2022-12-27T10:28:15.943Z,5.33
2022-12-27T10:30:44.800Z,5.28
2022-12-27T10:33:19.900Z,5.32
2022-12-27T10:35:47.245Z,5.42
2022-12-27T10:38:14.686Z,5.60
2022-12-27T10:40:51.779Z,5.79
2022-12-27T10:43:23.484Z,5.94
2022-12-27T10:45:51.782Z,6.13
2022-12-27T10:48:21.040Z,6.25
2022-12-27T10:50:53.437Z,6.26
2022-12-27T10:53:31.282Z,6.24
2022-12-27T10:56:08.235Z,6.32
2022-12-27T10:58:40.029Z,6.31
2022-12-27T11:01:16.467Z,6.37
2022-12-27T11:03:43.686Z,6.41
2022-12-27T11:06:21.234Z,6.41
2022-12-27T11:08:48.615Z,6.45
2022-12-27T11:11:18.507Z,6.49
2022-12-27T11:13:45.511Z,6.41
2022-12-27T11:16:23.242Z,6.42
2022-12-27T11:18:54.557Z,6.37
2022-12-27T11:21:27.839Z,6.34
2022-12-27T11:23:58.712Z,6.34
2022-12-27T11:26:29.776Z,6.43
2022-12-27T11:28:59.759Z,6.44
2022-12-27T11:31:32.891Z,6.49
2022-12-27T11:34:04.917Z,6.46
2022-12-27T11:36:35.968Z,6.44
2022-12-27T11:39:03.805Z,6.54
2022-12-27T11:41:41.152Z,6.56
2022-12-27T11:44:16.456Z,6.55
2022-12-27T11:46:55.530Z,6.66
2022-12-27T11:49:31.405Z,6.73
2022-12-27T11:52:28.279Z,6.80
2022-12-27T11:55:27.428Z,6.82
2022-12-27T11:58:23.491Z,6.89
2022-12-27T12:01:03.682Z,6.89
2022-12-27T12:04:04.778Z,6.94
2022-12-27T12:06:44.829Z,6.97
2022-12-27T12:09:32.197Z,7.14
2022-12-27T12:12:21.407Z,7.22
2022-12-27T12:15:06.542Z,7.24
2022-12-27T12:17:51.698Z,7.18
2022-12-27T12:21:04.790Z,7.03
2022-12-27T12:23:53.750Z,7.17
2022-12-27T12:26:22.934Z,7.30
2022-12-27T12:29:22.079Z,7.32
2022-12-27T12:32:09.983Z,7.45
2022-12-27T12:34:57.529Z,7.64
2022-12-27T12:37:45.917Z,7.88
2022-12-27T12:40:33.112Z,8.03
2022-12-27T12:43:13.490Z,8.18
2022-12-27T12:46:02.909Z,8.31
2022-12-27T12:48:56.299Z,8.32
2022-12-27T12:52:04.645Z,8.39
2022-12-27T12:54:56.714Z,8.28
2022-12-27T12:57:36.700Z,8.10
2022-12-27T13:00:22.030Z,8.09
2022-12-27T13:03:11.206Z,8.10
2022-12-27T13:05:45.594Z,8.03
2022-12-27T13:08:20.202Z,8.11
2022-12-27T13:11:05.350Z,8.03
2022-12-27T13:13:43.691Z,8.04
2022-12-27T13:16:19.553Z,8.01
2022-12-27T13:18:57.836Z,7.94
2022-12-27T13:21:36.882Z,7.90
2022-12-27T13:25:34.001Z,7.96
2022-12-27T13:28:13.975Z,8.04
2022-12-27T13:30:46.951Z,8.11
2022-12-27T13:33:26.553Z,8.16
2022-12-27T13:36:12.686Z,8.05
2022-12-27T13:39:01.425Z,8.12
2022-12-27T13:41:46.433Z,8.02
2022-12-27T13:44:54.016Z,8.04
2022-12-27T13:47:55.647Z,8.12
2022-12-27T13:51:03.304Z,8.33
2022-12-27T13:54:23.632Z,8.38
2022-12-27T13:56:58.052Z,8.47
2022-12-27T14:00:05.648Z,8.63
2022-12-27T14:03:10.325Z,8.75
2022-12-27T14:06:20.804Z,8.89
2022-12-27T14:09:26.416Z,8.88
2022-12-27T14:12:16.776Z,9.00
2022-12-27T14:14:46.751Z,9.07
2022-12-27T14:17:29.754Z,8.99
2022-12-27T14:20:24.599Z,8.86
2022-12-27T14:23:17.725Z,8.71
2022-12-27T14:26:12.015Z,8.70
2022-12-27T14:29:24.471Z,8.53
2022-12-27T14:32:39.565Z,8.34
2022-12-27T14:35:24.357Z,8.22
2022-12-27T14:38:35.766Z,8.04
2022-12-27T14:41:50.187Z,7.87
2022-12-27T14:44:59.208Z,7.86
2022-12-27T14:48:01.451Z,7.84
2022-12-27T14:50:57.904Z,7.81
2022-12-27T14:54:12.405Z,7.76
2022-12-27T14:56:53.731Z,7.71
2022-12-27T14:59:30.732Z,7.74
2022-12-27T15:02:08.955Z,7.66
2022-12-27T15:04:50.897Z,7.62
2022-12-27T15:07:35.180Z,7.60
2022-12-27T15:10:05.107Z,7.61
2022-12-27T15:12:43.848Z,7.63
2022-12-27T15:15:23.753Z,7.53
2022-12-27T15:18:12.109Z,7.44
2022-12-27T15:20:55.444Z,7.39
2022-12-27T15:23:33.980Z,7.36
2022-12-27T15:26:11.558Z,7.35
2022-12-27T15:28:51.688Z,7.39
2022-12-27T15:31:30.116Z,7.33
2022-12-27T15:34:12.794Z,7.28
2022-12-27T15:36:42.710Z,7.12
2022-12-27T15:39:43.466Z,7.01
2022-12-27T15:42:38.654Z,6.99
2022-12-27T15:45:18.522Z,7.02
2022-12-27T15:48:05.368Z,6.90
2022-12-27T15:50:44.177Z,6.96
2022-12-27T15:53:32.780Z,6.89
2022-12-27T15:56:34.023Z,6.78
2022-12-27T15:59:33.835Z,6.78
2022-12-27T16:02:30.547Z,6.70
2022-12-27T16:05:05.263Z,6.60
2022-12-27T16:07:39.289Z,6.56
2022-12-27T16:10:33.004Z,6.58
2022-12-27T16:13:13.363Z,6.61
2022-12-27T16:15:53.564Z,6.54
2022-12-27T16:19:08.844Z,6.51
2022-12-27T16:21:41.919Z,6.51
2022-12-27T16:24:16.079Z,6.58
2022-12-27T16:26:54.424Z,6.60
2022-12-27T16:29:26.246Z,6.53
2022-12-27T16:32:16.927Z,6.53
2022-12-27T16:34:46.538Z,6.60
2022-12-27T16:37:28.368Z,6.51
2022-12-27T16:40:14.889Z,6.52
2022-12-27T16:43:26.368Z,6.42
2022-12-27T16:46:00.167Z,6.32
2022-12-27T16:48:39.769Z,6.39
2022-12-27T16:51:17.528Z,6.42
2022-12-27T16:54:02.242Z,6.41
2022-12-27T16:56:31.144Z,6.36
2022-12-27T16:58:58.078Z,6.37
2022-12-27T17:01:56.465Z,6.35
2022-12-27T17:04:59.216Z,6.31
2022-12-27T17:07:41.410Z,6.28
2022-12-27T17:10:42.637Z,6.23
2022-12-27T17:13:14.695Z,6.22
2022-12-27T17:15:51.199Z,6.24
2022-12-27T17:18:26.944Z,6.33
2022-12-27T17:21:02.158Z,6.26
2022-12-27T17:23:29.979Z,6.25
2022-12-27T17:26:12.764Z,6.22
2022-12-27T17:28:48.402Z,6.15
2022-12-27T17:31:22.839Z,6.14
2022-12-27T17:34:03.129Z,6.18
2022-12-27T17:36:42.443Z,6.19
2022-12-27T17:39:24.869Z,6.10
2022-12-27T17:42:19.872Z,6.05
2022-12-27T17:45:04.505Z,6.13
2022-12-27T17:47:53.200Z,6.14
2022-12-27T17:50:24.054Z,6.03
2022-12-27T17:53:22.355Z,6.11
2022-12-27T17:56:19.514Z,6.03
2022-12-27T17:58:47.755Z,5.96
2022-12-27T18:01:14.907Z,6.03
2022-12-27T18:03:44.805Z,5.98
2022-12-27T18:06:12.361Z,5.90
2022-12-27T18:08:40.331Z,5.82
2022-12-27T18:11:10.338Z,5.84
2022-12-27T18:13:45.084Z,5.84
2022-12-27T18:16:18.418Z,5.86
2022-12-27T18:18:47.984Z,5.84
2022-12-27T18:21:23.025Z,5.88
2022-12-27T18:23:52.804Z,5.87
2022-12-27T18:26:21.864Z,5.88
2022-12-27T18:28:48.926Z,5.93
2022-12-27T18:31:24.012Z,5.89
2022-12-27T18:33:53.201Z,5.95
2022-12-27T18:36:29.310Z,5.89
2022-12-27T18:39:00.583Z,5.81
2022-12-27T18:41:34.129Z,5.88
2022-12-27T18:44:01.765Z,5.95
2022-12-27T18:46:32.650Z,6.02
2022-12-27T18:49:00.362Z,6.11
2022-12-27T18:51:32.973Z,6.20
2022-12-27T18:54:00.046Z,6.21
2022-12-27T18:56:32.663Z,6.07
2022-12-27T18:59:01.876Z,6.13
2022-12-27T19:01:38.525Z,6.16
2022-12-27T19:04:25.345Z,6.25
2022-12-27T19:06:57.395Z,6.25
2022-12-27T19:09:28.263Z,6.17
2022-12-27T19:11:58.755Z,6.16
2022-12-27T19:14:26.935Z,6.18
2022-12-27T19:16:58.231Z,6.09
2022-12-27T19:19:28.125Z,6.07
2022-12-27T19:21:56.238Z,6.04
2022-12-27T19:24:33.006Z,6.11
2022-12-27T19:27:02.059Z,6.03
2022-12-27T19:29:34.219Z,6.08
2022-12-27T19:32:07.317Z,6.08
2022-12-27T19:34:42.864Z,6.13
2022-12-27T19:37:10.499Z,6.16
2022-12-27T19:39:39.302Z,6.21
2022-12-27T19:42:11.812Z,6.22
2022-12-27T19:44:38.713Z,6.25
2022-12-27T19:47:10.432Z,6.28
2022-12-27T19:49:42.970Z,6.27
2022-12-27T19:52:15.520Z,6.32
2022-12-27T19:54:42.764Z,6.29
2022-12-27T19:57:11.643Z,6.27
2022-12-27T19:59:38.836Z,6.29
2022-12-27T20:02:07.684Z,6.30
2022-12-27T20:04:34.870Z,6.29
2022-12-27T20:07:02.625Z,6.32
2022-12-27T20:09:29.953Z,6.39
2022-12-27T20:11:57.045Z,6.39
2022-12-27T20:14:23.897Z,6.39
2022-12-27T20:16:50.863Z,6.38
2022-12-27T20:19:20.310Z,6.32
2022-12-27T20:21:47.584Z,6.37
2022-12-27T20:24:14.759Z,6.40
2022-12-27T20:26:42.552Z,6.33
2022-12-27T20:29:09.770Z,6.38
2022-12-27T20:31:44.304Z,6.26
2022-12-27T20:34:12.148Z,6.34
2022-12-27T20:36:41.934Z,6.35
2022-12-27T20:39:09.607Z,6.34
2022-12-27T20:41:36.812Z,6.37
2022-12-27T20:44:03.736Z,6.31
2022-12-27T20:46:30.581Z,6.39
2022-12-27T20:48:57.654Z,6.45
2022-12-27T20:51:27.981Z,6.37
2022-12-27T20:53:57.468Z,6.47
2022-12-27T20:56:25.199Z,6.42
2022-12-27T20:58:52.181Z,6.60
2022-12-27T21:01:20.704Z,6.60
2022-12-27T21:03:48.028Z,6.64
2022-12-27T21:06:16.987Z,6.57
2022-12-27T21:08:52.549Z,6.65
2022-12-27T21:11:30.369Z,6.73
2022-12-27T21:13:57.796Z,6.68
2022-12-27T21:16:27.210Z,6.65
2022-12-27T21:18:54.888Z,6.79
2022-12-27T21:21:25.698Z,6.70
2022-12-27T21:23:55.168Z,6.77
2022-12-27T21:26:25.658Z,6.83
2022-12-27T21:28:52.621Z,6.86
2022-12-27T21:31:19.771Z,6.89
2022-12-27T21:33:47.084Z,6.95
2022-12-27T21:36:15.862Z,6.95
2022-12-27T21:38:43.374Z,6.97
2022-12-27T21:41:12.659Z,6.97
2022-12-27T21:43:41.552Z,6.92
2022-12-27T21:46:11.541Z,6.98
2022-12-27T21:48:38.678Z,6.99
2022-12-27T21:51:06.676Z,7.02
2022-12-27T21:53:33.519Z,7.10
2022-12-27T21:56:00.629Z,7.11
2022-12-27T21:58:29.640Z,7.08
2022-12-27T22:01:08.160Z,7.10
2022-12-27T22:03:37.385Z,7.02
2022-12-27T22:06:10.054Z,7.09
2022-12-27T22:08:37.229Z,7.07
2022-12-27T22:11:04.112Z,7.14
2022-12-27T22:13:31.248Z,7.08
2022-12-27T22:15:59.877Z,7.03
2022-12-27T22:18:31.310Z,6.96
2022-12-27T22:21:00.979Z,7.02
2022-12-27T22:23:31.132Z,7.01
2022-12-27T22:25:57.945Z,6.93
2022-12-27T22:28:24.830Z,6.94
2022-12-27T22:30:52.043Z,6.95
2022-12-27T22:33:19.235Z,6.92
2022-12-27T22:35:47.645Z,6.97
2022-12-27T22:38:14.745Z,6.92
2022-12-27T22:40:46.205Z,6.82
2022-12-27T22:43:13.717Z,6.86
2022-12-27T22:45:41.293Z,6.90
2022-12-27T22:48:08.200Z,6.87
2022-12-27T22:50:36.958Z,6.94
2022-12-27T22:53:05.248Z,7.04
2022-12-27T22:55:32.071Z,6.97
2022-12-27T22:57:58.904Z,6.83
2022-12-27T23:00:25.809Z,6.84
2022-12-27T23:02:52.971Z,6.90
2022-12-27T23:05:20.024Z,6.85
2022-12-27T23:08:03.612Z,6.85
2022-12-27T23:10:35.664Z,6.83
2022-12-27T23:13:02.711Z,6.83
2022-12-27T23:15:29.493Z,6.89
2022-12-27T23:17:56.338Z,6.85
2022-12-27T23:20:23.178Z,6.91
2022-12-27T23:22:50.023Z,6.88
2022-12-27T23:25:16.809Z,6.88
2022-12-27T23:27:45.035Z,6.94
2022-12-27T23:30:13.636Z,6.92
2022-12-27T23:32:40.634Z,6.96
2022-12-27T23:35:08.171Z,6.97
2022-12-27T23:37:35.948Z,7.04
2022-12-27T23:40:02.866Z,7.05
2022-12-27T23:42:29.713Z,7.07
2022-12-27T23:44:57.974Z,7.15
2022-12-27T23:47:24.779Z,7.15
2022-12-27T23:49:51.614Z,7.09
2022-12-27T23:52:18.581Z,7.14
2022-12-27T23:54:45.449Z,7.10
2022-12-27T23:57:22.135Z,7.15
2022-12-27T23:59:49.880Z,7.10
